Time,TemperatureF,DewpointF,PressureIn,WindDirection,WindDirectionDegrees,WindSpeedMPH,WindSpeedGustMPH,Humidity,HourlyPrecipIn,Conditions,Clouds,dailyrainin,SoftwareType,DateUTC
2013-01-11 00:03:00,55.0,54.0,30.50,WSW,257,0.0,0.0,95,0.00,,,0.01,,2013-01-11 05:03:00,
2013-01-11 00:13:00,54.0,53.0,30.50,WSW,243,0.0,1.0,96,0.00,,,0.01,,2013-01-11 05:13:00,
2013-01-11 00:22:00,54.0,53.0,30.50,WSW,243,0.0,1.0,96,0.00,,,0.01,,2013-01-11 05:22:00,
2013-01-11 00:33:00,54.0,51.0,30.49,East,90,6.0,8.0,91,0.00,,,0.01,,2013-01-11 05:33:00,
2013-01-11 00:43:00,54.0,51.0,30.49,East,90,6.0,8.0,91,0.00,,,0.01,,2013-01-11 05:43:00,
2013-01-11 00:52:00,53.0,51.0,30.49,NE,55,0.0,0.0,92,0.00,,,0.02,,2013-01-11 05:52:00,
2013-01-11 01:03:00,53.0,52.0,30.49,SW,229,0.0,0.0,96,0.00,,,0.02,,2013-01-11 06:03:00,
2013-01-11 01:12:00,53.0,52.0,30.49,SW,229,0.0,0.0,96,0.00,,,0.02,,2013-01-11 06:12:00,
2013-01-11 01:22:00,52.0,51.0,30.49,SW,229,0.0,0.0,97,0.00,,,0.02,,2013-01-11 06:22:00,
2013-01-11 01:32:00,51.0,51.0,30.47,SSW,203,0.0,0.0,100,0.00,,,0.03,,2013-01-11 06:32:00,
2013-01-11 01:42:00,51.0,51.0,30.47,SSW,203,0.0,0.0,100,0.00,,,0.03,,2013-01-11 06:42:00,
2013-01-11 01:52:00,51.0,51.0,30.46,North,3,2.0,3.0,100,0.00,,,0.03,,2013-01-11 06:52:00,
2013-01-11 02:02:00,51.0,51.0,30.46,NNE,13,1.0,2.0,100,0.00,,,0.03,,2013-01-11 07:02:00,
2013-01-11 02:12:00,51.0,51.0,30.46,NE,46,0.0,0.0,100,0.00,,,0.03,,2013-01-11 07:12:00,
2013-01-11 02:22:00,51.0,51.0,30.46,NE,46,0.0,0.0,100,0.00,,,0.03,,2013-01-11 07:22:00,
2013-01-11 02:32:00,51.0,51.0,30.45,ENE,76,1.0,2.0,100,0.00,,,0.03,,2013-01-11 07:32:00,
2013-01-11 02:42:00,51.0,51.0,30.45,WSW,245,1.0,2.0,100,0.00,,,0.03,,2013-01-11 07:42:00,
2013-01-11 02:52:00,51.0,51.0,30.45,WSW,245,1.0,2.0,100,0.00,,,0.03,,2013-01-11 07:52:00,
2013-01-11 03:02:00,51.0,51.0,30.45,SW,229,0.0,0.0,100,0.00,,,0.04,,2013-01-11 08:02:00,
2013-01-11 03:12:00,51.0,51.0,30.44,North,354,0.0,1.0,100,0.00,,,0.05,,2013-01-11 08:12:00,
2013-01-11 03:22:00,51.0,51.0,30.44,North,354,0.0,1.0,100,0.00,,,0.05,,2013-01-11 08:22:00,
2013-01-11 03:32:00,51.0,51.0,30.43,SW,215,0.0,0.0,100,0.00,,,0.06,,2013-01-11 08:32:00,
2013-01-11 03:42:00,51.0,51.0,30.43,SW,215,0.0,0.0,100,0.00,,,0.06,,2013-01-11 08:42:00,
2013-01-11 03:52:00,50.0,50.0,30.42,ENE,77,4.0,4.0,100,0.00,,,0.06,,2013-01-11 08:52:00,
2013-01-11 04:02:00,50.0,50.0,30.42,SW,232,0.0,1.0,100,0.00,,,0.06,,2013-01-11 09:02:00,
2013-01-11 04:12:00,50.0,50.0,30.42,SW,232,0.0,1.0,100,0.00,,,0.06,,2013-01-11 09:12:00,
2013-01-11 04:23:00,50.0,50.0,30.41,NNE,27,0.0,0.0,100,0.00,,,0.07,,2013-01-11 09:23:00,
2013-01-11 04:32:00,50.0,50.0,30.41,NNE,27,0.0,0.0,100,0.00,,,0.12,,2013-01-11 09:32:00,
2013-01-11 04:42:00,50.0,50.0,30.41,NNE,27,0.0,0.0,100,0.00,,,0.12,,2013-01-11 09:42:00,
2013-01-11 04:52:00,50.0,50.0,30.41,SE,128,1.0,1.0,100,0.00,,,0.14,,2013-01-11 09:52:00,
2013-01-11 05:02:00,50.0,50.0,30.41,East,96,1.0,2.0,100,0.00,,,0.14,,2013-01-11 10:02:00,
2013-01-11 05:12:00,50.0,50.0,30.41,East,96,1.0,2.0,100,0.00,,,0.14,,2013-01-11 10:12:00,
2013-01-11 05:22:00,50.0,50.0,30.41,SSW,200,0.0,0.0,100,0.00,,,0.15,,2013-01-11 10:22:00,
2013-01-11 05:32:00,50.0,50.0,30.41,ESE,108,0.0,0.0,100,0.00,,,0.16,,2013-01-11 10:32:00,
2013-01-11 05:42:00,50.0,50.0,30.41,ESE,108,0.0,0.0,100,0.00,,,0.16,,2013-01-11 10:42:00,
2013-01-11 05:52:00,50.0,50.0,30.39,ESE,108,0.0,0.0,100,0.00,,,0.17,,2013-01-11 10:52:00,
2013-01-11 06:03:00,50.0,50.0,30.39,ESE,108,0.0,0.0,100,0.00,,,0.17,,2013-01-11 11:03:00,
2013-01-11 06:12:00,50.0,50.0,30.39,ESE,108,0.0,0.0,100,0.00,,,0.17,,2013-01-11 11:12:00,
2013-01-11 06:22:00,50.0,50.0,30.39,SW,235,2.0,3.0,100,0.00,,,0.19,,2013-01-11 11:22:00,
2013-01-11 06:33:00,50.0,50.0,30.38,West,274,0.0,0.0,100,0.00,,,0.19,,2013-01-11 11:33:00,
2013-01-11 06:42:00,50.0,50.0,30.38,West,274,0.0,0.0,100,0.00,,,0.19,,2013-01-11 11:42:00,
2013-01-11 06:52:00,50.0,50.0,30.39,West,259,0.0,0.0,100,0.00,,,0.22,,2013-01-11 11:52:00,
2013-01-11 07:03:00,50.0,50.0,30.39,WSW,240,0.0,0.0,100,0.00,,,0.23,,2013-01-11 12:03:00,
2013-01-11 07:12:00,50.0,50.0,30.39,WSW,240,0.0,0.0,100,0.00,,,0.23,,2013-01-11 12:12:00,
2013-01-11 07:22:00,50.0,50.0,30.40,NE,46,0.0,0.0,100,0.00,,,0.24,,2013-01-11 12:22:00,
2013-01-11 07:33:00,50.0,50.0,30.40,NW,322,0.0,0.0,100,0.00,,,0.25,,2013-01-11 12:33:00,
2013-01-11 07:42:00,50.0,50.0,30.40,NW,322,0.0,0.0,100,0.00,,,0.25,,2013-01-11 12:42:00,
2013-01-11 07:52:00,50.0,50.0,30.40,NW,322,0.0,0.0,100,0.00,,,0.26,,2013-01-11 12:52:00,
2013-01-11 08:03:00,50.0,50.0,30.39,South,183,0.0,0.0,100,0.00,,,0.31,,2013-01-11 13:03:00,
2013-01-11 08:13:00,50.0,50.0,30.39,South,183,0.0,0.0,100,0.00,,,0.31,,2013-01-11 13:13:00,
2013-01-11 08:22:00,50.0,50.0,30.40,South,183,0.0,0.0,100,0.00,,,0.33,,2013-01-11 13:22:00,
2013-01-11 08:33:00,50.0,50.0,30.40,West,263,0.0,0.0,100,0.00,,,0.37,,2013-01-11 13:33:00,
2013-01-11 08:42:00,50.0,50.0,30.40,West,263,0.0,0.0,100,0.00,,,0.37,,2013-01-11 13:42:00,
2013-01-11 08:52:00,50.0,50.0,30.41,West,263,0.0,0.0,100,0.00,,,0.42,,2013-01-11 13:52:00,
2013-01-11 09:03:00,50.0,50.0,30.40,West,263,0.0,0.0,100,0.00,,,0.44,,2013-01-11 14:03:00,
2013-01-11 09:12:00,50.0,50.0,30.41,West,263,0.0,0.0,100,0.00,,,0.46,,2013-01-11 14:12:00,
2013-01-11 09:23:00,50.0,50.0,30.41,West,263,0.0,0.0,100,0.00,,,0.46,,2013-01-11 14:23:00,
2013-01-11 09:33:00,50.0,50.0,30.42,West,263,0.0,0.0,100,0.00,,,0.51,,2013-01-11 14:33:00,
2013-01-11 09:43:00,50.0,50.0,30.42,West,263,0.0,0.0,100,0.00,,,0.55,,2013-01-11 14:43:00,
2013-01-11 09:53:00,50.0,50.0,30.42,West,263,0.0,0.0,100,0.00,,,0.55,,2013-01-11 14:53:00,
2013-01-11 10:03:00,50.0,50.0,30.42,West,263,0.0,0.0,100,0.00,,,0.59,,2013-01-11 15:03:00,
2013-01-11 10:13:00,50.0,50.0,30.41,West,263,0.0,0.0,100,0.00,,,0.61,,2013-01-11 15:13:00,
2013-01-11 10:23:00,50.0,50.0,30.41,West,263,0.0,0.0,100,0.00,,,0.61,,2013-01-11 15:23:00,
2013-01-11 10:33:00,51.0,51.0,30.41,West,263,0.0,0.0,100,0.00,,,0.63,,2013-01-11 15:33:00,
2013-01-11 10:43:00,51.0,51.0,30.41,West,263,0.0,0.0,100,0.00,,,0.63,,2013-01-11 15:43:00,
2013-01-11 10:52:00,51.0,51.0,30.42,West,263,0.0,0.0,100,0.00,,,0.65,,2013-01-11 15:52:00,
2013-01-11 11:03:00,51.0,51.0,30.42,West,263,0.0,0.0,100,0.00,,,0.66,,2013-01-11 16:03:00,
2013-01-11 11:12:00,51.0,51.0,30.41,West,263,0.0,0.0,100,0.00,,,0.67,,2013-01-11 16:12:00,
2013-01-11 11:22:00,51.0,51.0,30.41,West,263,0.0,0.0,100,0.00,,,0.67,,2013-01-11 16:22:00,
2013-01-11 11:33:00,50.0,50.0,30.39,West,263,0.0,0.0,100,0.00,,,0.68,,2013-01-11 16:33:00,
2013-01-11 11:43:00,50.0,50.0,30.38,West,263,0.0,0.0,100,0.00,,,0.69,,2013-01-11 16:43:00,
2013-01-11 11:52:00,50.0,50.0,30.38,West,263,0.0,0.0,100,0.00,,,0.69,,2013-01-11 16:52:00,
2013-01-11 12:03:00,51.0,51.0,30.37,West,263,0.0,0.0,100,0.00,,,0.70,,2013-01-11 17:03:00,
2013-01-11 12:12:00,51.0,51.0,30.36,West,263,0.0,0.0,100,0.00,,,0.71,,2013-01-11 17:12:00,
2013-01-11 12:22:00,51.0,51.0,30.36,West,263,0.0,0.0,100,0.00,,,0.71,,2013-01-11 17:22:00,
2013-01-11 12:33:00,51.0,51.0,30.36,West,263,0.0,0.0,100,0.00,,,0.72,,2013-01-11 17:33:00,
2013-01-11 12:43:00,51.0,51.0,30.36,West,263,0.0,0.0,100,0.00,,,0.72,,2013-01-11 17:43:00,
2013-01-11 12:53:00,51.0,51.0,30.35,West,263,0.0,0.0,100,0.00,,,0.73,,2013-01-11 17:53:00,
2013-01-11 13:03:00,51.0,51.0,30.35,West,263,0.0,0.0,100,0.00,,,0.74,,2013-01-11 18:03:00,
2013-01-11 13:13:00,51.0,51.0,30.35,West,263,0.0,0.0,100,0.00,,,0.74,,2013-01-11 18:13:00,
2013-01-11 13:23:00,51.0,51.0,30.34,West,263,0.0,0.0,100,0.00,,,0.75,,2013-01-11 18:23:00,
2013-01-11 13:33:00,51.0,51.0,30.34,West,263,0.0,0.0,100,0.00,,,0.76,,2013-01-11 18:33:00,
2013-01-11 13:43:00,51.0,51.0,30.34,West,263,0.0,0.0,100,0.00,,,0.76,,2013-01-11 18:43:00,
2013-01-11 13:53:00,51.0,51.0,30.34,West,263,0.0,0.0,100,0.00,,,0.77,,2013-01-11 18:53:00,
2013-01-11 14:03:00,51.0,51.0,30.33,West,263,0.0,0.0,100,0.00,,,0.77,,2013-01-11 19:03:00,
2013-01-11 14:12:00,51.0,51.0,30.33,West,263,0.0,0.0,100,0.00,,,0.77,,2013-01-11 19:12:00,
2013-01-11 14:22:00,51.0,51.0,30.32,West,263,0.0,0.0,100,0.00,,,0.77,,2013-01-11 19:22:00,
2013-01-11 14:32:00,51.0,51.0,30.32,West,263,0.0,0.0,100,0.00,,,0.77,,2013-01-11 19:32:00,
2013-01-11 14:43:00,51.0,51.0,30.32,West,263,0.0,0.0,100,0.00,,,0.77,,2013-01-11 19:43:00,
2013-01-11 14:53:00,51.0,51.0,30.32,West,263,0.0,0.0,100,0.00,,,0.78,,2013-01-11 19:53:00,
2013-01-11 15:03:00,51.0,51.0,30.33,West,263,0.0,0.0,100,0.00,,,0.78,,2013-01-11 20:03:00,
2013-01-11 15:12:00,51.0,51.0,30.33,West,263,0.0,0.0,100,0.00,,,0.78,,2013-01-11 20:12:00,
2013-01-11 15:22:00,51.0,51.0,30.31,West,263,0.0,0.0,100,0.00,,,0.78,,2013-01-11 20:22:00,
2013-01-11 15:33:00,51.0,51.0,30.31,West,263,0.0,0.0,100,0.00,,,0.78,,2013-01-11 20:33:00,
2013-01-11 15:43:00,51.0,51.0,30.31,West,263,0.0,0.0,100,0.00,,,0.78,,2013-01-11 20:43:00,
2013-01-11 15:53:00,51.0,51.0,30.30,West,263,0.0,0.0,100,0.00,,,0.78,,2013-01-11 20:53:00,
2013-01-11 16:03:00,51.0,51.0,30.30,West,263,0.0,0.0,100,0.00,,,0.78,,2013-01-11 21:03:00,
2013-01-11 16:12:00,52.0,52.0,30.30,West,263,0.0,0.0,100,0.00,,,0.78,,2013-01-11 21:12:00,
2013-01-11 16:23:00,52.0,52.0,30.30,West,263,0.0,0.0,100,0.00,,,0.78,,2013-01-11 21:23:00,
2013-01-11 16:33:00,52.0,52.0,30.29,West,263,0.0,0.0,100,0.00,,,0.78,,2013-01-11 21:33:00,
2013-01-11 16:42:00,52.0,52.0,30.29,West,263,0.0,0.0,100,0.00,,,0.78,,2013-01-11 21:42:00,
2013-01-11 16:53:00,52.0,52.0,30.29,West,263,0.0,0.0,100,0.00,,,0.78,,2013-01-11 21:53:00,
2013-01-11 17:02:00,52.0,52.0,30.29,West,263,0.0,0.0,100,0.00,,,0.78,,2013-01-11 22:02:00,
2013-01-11 17:12:00,52.0,52.0,30.28,West,263,0.0,0.0,100,0.00,,,0.79,,2013-01-11 22:12:00,
2013-01-11 17:22:00,52.0,52.0,30.28,West,263,0.0,0.0,100,0.00,,,0.79,,2013-01-11 22:22:00,
2013-01-11 17:33:00,52.0,52.0,30.28,West,263,0.0,0.0,100,0.00,,,0.79,,2013-01-11 22:33:00,
2013-01-11 17:42:00,52.0,52.0,30.28,West,263,0.0,0.0,100,0.00,,,0.79,,2013-01-11 22:42:00,
2013-01-11 17:53:00,51.0,51.0,30.27,WSW,252,0.0,0.0,100,0.00,,,0.79,,2013-01-11 22:53:00,
2013-01-11 18:02:00,51.0,51.0,30.28,WSW,252,0.0,0.0,100,0.00,,,0.79,,2013-01-11 23:02:00,
2013-01-11 18:13:00,51.0,51.0,30.29,WSW,252,0.0,0.0,100,0.00,,,0.79,,2013-01-11 23:13:00,
2013-01-11 18:23:00,51.0,51.0,30.29,WSW,252,0.0,0.0,100,0.00,,,0.79,,2013-01-11 23:23:00,
2013-01-11 18:32:00,51.0,51.0,30.30,WSW,252,0.0,0.0,100,0.00,,,0.79,,2013-01-11 23:32:00,
2013-01-11 18:43:00,51.0,51.0,30.30,WSW,252,0.0,0.0,100,0.00,,,0.79,,2013-01-11 23:43:00,
2013-01-11 18:53:00,51.0,51.0,30.30,WSW,252,0.0,0.0,100,0.00,,,0.79,,2013-01-11 23:53:00,
2013-01-11 19:02:00,51.0,51.0,30.31,WSW,252,0.0,0.0,100,0.00,,,0.79,,2013-01-12 00:02:00,
2013-01-11 19:12:00,51.0,51.0,30.31,WSW,252,0.0,0.0,100,0.00,,,0.79,,2013-01-12 00:12:00,
2013-01-11 19:23:00,51.0,51.0,30.31,WSW,252,0.0,0.0,100,0.00,,,0.79,,2013-01-12 00:23:00,
2013-01-11 19:33:00,51.0,51.0,30.31,WSW,252,0.0,0.0,100,0.00,,,0.80,,2013-01-12 00:33:00,
2013-01-11 19:43:00,51.0,51.0,30.31,WSW,252,0.0,0.0,100,0.00,,,0.80,,2013-01-12 00:43:00,
2013-01-11 19:53:00,51.0,51.0,30.32,WSW,252,0.0,0.0,100,0.00,,,0.80,,2013-01-12 00:53:00,
2013-01-11 20:02:00,51.0,51.0,30.31,WSW,252,0.0,0.0,100,0.00,,,0.81,,2013-01-12 01:02:00,
2013-01-11 20:12:00,51.0,51.0,30.31,WSW,252,0.0,0.0,100,0.00,,,0.81,,2013-01-12 01:12:00,
2013-01-11 20:22:00,51.0,51.0,30.31,WSW,252,0.0,0.0,100,0.00,,,0.81,,2013-01-12 01:22:00,
2013-01-11 20:33:00,51.0,51.0,30.30,WSW,252,0.0,0.0,100,0.00,,,0.81,,2013-01-12 01:33:00,
2013-01-11 20:43:00,51.0,51.0,30.30,WSW,252,0.0,0.0,100,0.00,,,0.81,,2013-01-12 01:43:00,
2013-01-11 20:53:00,51.0,51.0,30.30,WSW,252,0.0,0.0,100,0.00,,,0.81,,2013-01-12 01:53:00,
2013-01-11 21:02:00,51.0,51.0,30.30,WSW,252,0.0,0.0,100,0.00,,,0.82,,2013-01-12 02:02:00,
2013-01-11 21:12:00,51.0,51.0,30.30,WSW,252,0.0,0.0,100,0.00,,,0.82,,2013-01-12 02:12:00,
2013-01-11 21:22:00,51.0,51.0,30.31,WSW,252,0.0,0.0,100,0.00,,,0.82,,2013-01-12 02:22:00,
2013-01-11 21:33:00,51.0,51.0,30.31,WSW,252,0.0,0.0,100,0.00,,,0.82,,2013-01-12 02:33:00,
2013-01-11 21:43:00,51.0,51.0,30.31,WSW,252,0.0,0.0,100,0.00,,,0.82,,2013-01-12 02:43:00,
2013-01-11 21:53:00,51.0,51.0,30.30,WSW,252,0.0,0.0,100,0.00,,,0.82,,2013-01-12 02:53:00,
2013-01-11 22:03:00,51.0,51.0,30.29,WSW,252,0.0,0.0,100,0.00,,,0.82,,2013-01-12 03:03:00,
2013-01-11 22:12:00,51.0,51.0,30.29,WSW,252,0.0,0.0,100,0.00,,,0.82,,2013-01-12 03:12:00,
2013-01-11 22:22:00,51.0,51.0,30.30,WSW,252,0.0,0.0,100,0.00,,,0.82,,2013-01-12 03:22:00,
2013-01-11 22:33:00,51.0,51.0,30.30,WSW,252,0.0,0.0,100,0.00,,,0.82,,2013-01-12 03:33:00,
2013-01-11 22:43:00,51.0,51.0,30.30,WSW,252,0.0,0.0,100,0.00,,,0.82,,2013-01-12 03:43:00,
2013-01-11 22:52:00,51.0,51.0,30.30,WSW,252,0.0,0.0,100,0.00,,,0.82,,2013-01-12 03:52:00,
2013-01-11 23:02:00,51.0,51.0,30.30,WSW,252,0.0,0.0,100,0.00,,,0.82,,2013-01-12 04:02:00,
2013-01-11 23:12:00,51.0,51.0,30.30,WSW,252,0.0,0.0,100,0.00,,,0.82,,2013-01-12 04:12:00,
2013-01-11 23:22:00,51.0,51.0,30.30,WSW,252,0.0,0.0,100,0.00,,,0.82,,2013-01-12 04:22:00,
2013-01-11 23:32:00,51.0,51.0,30.30,WSW,252,0.0,0.0,100,0.00,,,0.82,,2013-01-12 04:32:00,
2013-01-11 23:42:00,51.0,51.0,30.30,WSW,252,0.0,0.0,100,0.00,,,0.82,,2013-01-12 04:42:00,
2013-01-11 23:52:00,51.0,51.0,30.29,WSW,252,0.0,0.0,100,0.00,,,0.82,,2013-01-12 04:52:00,